createdAt,value
2017-07-21T00:02:19.624Z,21.62
2017-07-21T00:04:47.977Z,21.49
2017-07-21T00:07:17.346Z,21.47
2017-07-21T00:09:45.696Z,21.44
2017-07-21T00:12:14.081Z,21.68
2017-07-21T00:14:42.716Z,21.68
2017-07-21T00:17:11.062Z,21.63
2017-07-21T00:19:39.410Z,21.70
2017-07-21T00:22:08.274Z,21.66
2017-07-21T00:24:36.609Z,21.85
2017-07-21T00:27:05.734Z,21.73
2017-07-21T00:29:34.921Z,21.66
2017-07-21T00:32:03.278Z,21.72
2017-07-21T00:34:31.623Z,21.71
2017-07-21T00:37:00.390Z,21.69
2017-07-21T00:39:28.765Z,21.65
2017-07-21T00:41:57.148Z,21.80
2017-07-21T00:44:25.803Z,21.88
2017-07-21T00:46:54.178Z,21.76
2017-07-21T00:49:23.299Z,21.81
2017-07-21T00:51:52.250Z,21.85
2017-07-21T00:54:20.617Z,22.05
2017-07-21T00:56:48.968Z,22.14
2017-07-21T00:59:17.738Z,22.09
2017-07-21T01:01:46.241Z,22.02
2017-07-21T01:04:14.576Z,21.82
2017-07-21T01:06:44.002Z,21.90
2017-07-21T01:09:12.348Z,21.83
2017-07-21T01:11:40.702Z,21.60
2017-07-21T01:14:09.547Z,21.55
2017-07-21T01:16:38.100Z,21.69
2017-07-21T01:19:06.433Z,21.87
2017-07-21T01:21:35.098Z,21.64
2017-07-21T01:24:03.440Z,21.56
2017-07-21T01:26:31.803Z,21.67
2017-07-21T01:29:00.545Z,21.71
2017-07-21T01:31:28.905Z,21.68
2017-07-21T01:33:57.285Z,21.75
2017-07-21T01:36:26.069Z,21.91
2017-07-21T01:38:55.190Z,21.81
2017-07-21T01:41:23.551Z,21.76
2017-07-21T01:43:52.190Z,21.91
2017-07-21T01:46:20.529Z,21.91
2017-07-21T01:48:48.888Z,21.94
2017-07-21T01:51:18.525Z,22.01
2017-07-21T01:53:46.884Z,22.01
2017-07-21T01:56:16.399Z,22.03
2017-07-21T01:58:45.385Z,21.99
2017-07-21T02:01:13.736Z,21.92
2017-07-21T02:03:42.084Z,21.73
2017-07-21T02:06:10.808Z,21.53
2017-07-21T02:08:39.163Z,21.54
2017-07-21T02:11:07.520Z,21.69
2017-07-21T02:13:36.280Z,21.74
2017-07-21T02:16:04.629Z,21.51
2017-07-21T02:18:32.930Z,21.48
2017-07-21T02:21:01.928Z,21.49
2017-07-21T02:23:30.293Z,21.31
2017-07-21T02:25:58.697Z,21.38
2017-07-21T02:28:27.595Z,21.43
2017-07-21T02:30:55.949Z,21.41
2017-07-21T02:33:25.064Z,21.30
2017-07-21T02:35:53.708Z,21.13
2017-07-21T02:38:22.076Z,21.22
2017-07-21T02:40:50.421Z,21.08
2017-07-21T02:43:19.707Z,20.95
2017-07-21T02:45:48.053Z,20.81
2017-07-21T02:48:17.175Z,20.98
2017-07-21T02:50:45.981Z,21.12
2017-07-21T02:53:14.318Z,21.10
2017-07-21T02:55:42.656Z,21.31
2017-07-21T02:58:13.062Z,21.16
2017-07-21T03:00:41.409Z,21.00
2017-07-21T03:03:09.763Z,21.35
2017-07-21T03:05:38.914Z,21.37
2017-07-21T03:08:07.255Z,21.33
2017-07-21T03:10:35.597Z,21.10
2017-07-21T03:13:04.266Z,21.15
2017-07-21T03:15:32.611Z,21.29
2017-07-21T03:18:00.951Z,20.99
2017-07-21T03:20:29.588Z,21.01
2017-07-21T03:23:28.419Z,21.11
2017-07-21T03:25:57.425Z,20.98
2017-07-21T03:28:25.754Z,21.01
2017-07-21T03:30:54.117Z,21.02
2017-07-21T03:33:23.552Z,21.16
2017-07-21T03:35:51.905Z,21.03
2017-07-21T03:38:20.999Z,20.81
2017-07-21T03:40:50.619Z,21.00
2017-07-21T03:43:18.975Z,21.16
2017-07-21T03:45:48.097Z,21.26
2017-07-21T03:48:16.782Z,21.24
2017-07-21T03:50:45.127Z,21.24
2017-07-21T03:53:13.475Z,21.13
2017-07-21T03:55:42.346Z,21.34
2017-07-21T03:58:10.684Z,21.39
2017-07-21T04:00:39.023Z,21.26
2017-07-21T04:03:07.701Z,21.32
2017-07-21T04:05:36.034Z,21.34
2017-07-21T04:08:04.371Z,21.42
2017-07-21T04:10:33.425Z,21.56
2017-07-21T04:13:01.760Z,21.63
2017-07-21T04:15:30.094Z,21.83
2017-07-21T04:17:58.706Z,21.74
2017-07-21T04:20:27.049Z,21.73
2017-07-21T04:22:55.377Z,21.86
2017-07-21T04:25:24.321Z,21.90
2017-07-21T04:27:52.683Z,22.05
2017-07-21T04:30:21.796Z,22.05
2017-07-21T04:32:50.775Z,22.02
2017-07-21T04:35:19.108Z,21.78
2017-07-21T04:37:47.445Z,21.57
2017-07-21T04:40:16.250Z,21.61
2017-07-21T04:42:44.644Z,21.62
2017-07-21T04:45:12.981Z,21.39
2017-07-21T04:47:41.659Z,21.38
2017-07-21T04:50:10.042Z,21.44
2017-07-21T04:52:39.149Z,21.63
2017-07-21T04:55:07.881Z,21.57
2017-07-21T04:57:36.240Z,21.45
2017-07-21T05:00:04.582Z,21.46
2017-07-21T05:02:33.374Z,21.12
2017-07-21T05:05:01.715Z,21.33
2017-07-21T05:07:30.064Z,21.34
2017-07-21T05:09:58.684Z,21.38
2017-07-21T05:12:27.028Z,21.42
2017-07-21T05:14:55.363Z,21.13
2017-07-21T05:17:24.272Z,21.38
2017-07-21T05:19:52.619Z,21.31
2017-07-21T05:22:20.972Z,21.59
2017-07-21T05:24:49.732Z,21.63
2017-07-21T05:27:18.066Z,21.56
2017-07-21T05:29:46.406Z,21.35
2017-07-21T05:32:15.050Z,21.67
2017-07-21T05:34:43.430Z,21.72
2017-07-21T05:37:11.765Z,21.74
2017-07-21T05:39:40.789Z,21.67
2017-07-21T05:42:09.152Z,21.38
2017-07-21T05:44:37.491Z,21.55
2017-07-21T05:47:06.277Z,21.90
2017-07-21T05:49:34.628Z,22.03
2017-07-21T05:52:02.965Z,22.02
2017-07-21T05:54:31.638Z,22.05
2017-07-21T05:56:59.999Z,22.08
2017-07-21T05:59:28.339Z,22.04
2017-07-21T06:01:57.363Z,21.88
2017-07-21T06:04:25.710Z,22.01
2017-07-21T06:06:54.070Z,22.11
2017-07-21T06:09:22.703Z,22.27
2017-07-21T06:11:51.053Z,22.29
2017-07-21T06:14:19.426Z,22.30
2017-07-21T06:16:48.107Z,22.36
2017-07-21T06:19:16.456Z,22.60
2017-07-21T06:21:44.814Z,22.49
2017-07-21T06:24:14.119Z,22.17
2017-07-21T06:26:42.483Z,22.11
2017-07-21T06:29:10.836Z,22.04
2017-07-21T06:31:39.764Z,22.14
2017-07-21T06:34:08.106Z,21.92
2017-07-21T06:36:36.448Z,22.08
2017-07-21T06:39:05.118Z,22.22
2017-07-21T06:41:33.466Z,21.82
2017-07-21T06:44:01.815Z,22.07
2017-07-21T06:46:30.648Z,22.44
2017-07-21T06:48:59.006Z,22.64
2017-07-21T06:51:27.353Z,22.87
2017-07-21T06:53:55.972Z,23.01
2017-07-21T06:56:24.327Z,23.02
2017-07-21T06:58:52.761Z,22.67
2017-07-21T07:01:21.537Z,22.56
2017-07-21T07:03:50.285Z,22.67
2017-07-21T07:06:18.618Z,22.86
2017-07-21T07:08:47.391Z,22.87
2017-07-21T07:11:15.763Z,23.16
2017-07-21T07:13:44.111Z,22.92
2017-07-21T07:16:13.066Z,23.02
2017-07-21T07:18:41.437Z,23.04
2017-07-21T07:21:09.771Z,23.26
2017-07-21T07:23:38.658Z,23.43
2017-07-21T07:26:06.977Z,23.59
2017-07-21T07:28:35.338Z,23.42
2017-07-21T07:31:04.347Z,23.73
2017-07-21T07:33:32.689Z,23.63
2017-07-21T07:36:01.095Z,23.72
2017-07-21T07:38:29.712Z,23.76
2017-07-21T07:40:58.046Z,24.02
2017-07-21T07:43:26.378Z,24.33
2017-07-21T07:45:55.218Z,24.27
2017-07-21T07:48:23.592Z,24.39
2017-07-21T07:50:52.703Z,24.27
2017-07-21T07:53:21.504Z,24.54
2017-07-21T07:55:49.883Z,24.90
2017-07-21T07:58:18.212Z,25.10
2017-07-21T08:00:46.945Z,25.23
2017-07-21T08:03:15.305Z,24.77
2017-07-21T08:05:43.669Z,24.53
2017-07-21T08:08:12.338Z,24.62
2017-07-21T08:10:40.734Z,24.68
2017-07-21T08:13:09.110Z,24.90
2017-07-21T08:15:37.970Z,25.10
2017-07-21T08:18:06.322Z,25.20
2017-07-21T08:20:34.641Z,25.21
2017-07-21T08:23:03.291Z,25.01
2017-07-21T08:25:31.647Z,25.30
2017-07-21T08:28:00.757Z,25.77
2017-07-21T08:30:29.653Z,25.80
2017-07-21T08:32:57.983Z,25.78
2017-07-21T08:35:26.332Z,25.89
2017-07-21T08:37:55.085Z,25.53
2017-07-21T08:40:24.202Z,25.60
2017-07-21T08:42:52.559Z,25.83
2017-07-21T08:45:21.462Z,26.10
2017-07-21T08:47:49.808Z,26.46
2017-07-21T08:50:18.152Z,26.37
2017-07-21T08:52:46.903Z,26.04
2017-07-21T08:55:15.254Z,26.23
2017-07-21T08:57:44.371Z,26.40
2017-07-21T09:00:13.816Z,26.64
2017-07-21T09:02:42.161Z,26.53
2017-07-21T09:05:10.514Z,26.25
2017-07-21T09:07:39.443Z,26.50
2017-07-21T09:10:07.779Z,26.53
2017-07-21T09:12:36.123Z,26.75
2017-07-21T09:15:04.872Z,26.73
2017-07-21T09:17:33.205Z,27.09
2017-07-21T09:20:01.558Z,27.27
2017-07-21T09:22:30.547Z,27.24
2017-07-21T09:24:58.886Z,27.17
2017-07-21T09:27:28.133Z,27.35
2017-07-21T09:29:56.753Z,27.30
2017-07-21T09:32:25.145Z,27.60
2017-07-21T09:34:54.258Z,27.66
2017-07-21T09:37:23.232Z,27.61
2017-07-21T09:39:51.567Z,27.96
2017-07-21T09:42:19.921Z,28.01
2017-07-21T09:44:49.215Z,28.12
2017-07-21T09:47:17.546Z,28.46
2017-07-21T09:49:45.912Z,28.21
2017-07-21T09:52:14.677Z,28.44
2017-07-21T09:54:43.059Z,28.72
2017-07-21T09:57:11.393Z,29.06
2017-07-21T09:59:40.243Z,29.01
2017-07-21T10:02:08.603Z,28.77
2017-07-21T10:04:36.931Z,28.28
2017-07-21T10:07:06.013Z,27.93
2017-07-21T10:09:34.373Z,28.16
2017-07-21T10:12:02.733Z,28.17
2017-07-21T10:14:31.486Z,28.37
2017-07-21T10:16:59.813Z,28.86
2017-07-21T10:19:28.153Z,28.35
2017-07-21T10:21:57.540Z,28.46
2017-07-21T10:24:25.910Z,28.82
2017-07-21T10:26:54.271Z,28.67
2017-07-21T10:29:23.424Z,28.65
2017-07-21T10:31:51.762Z,28.01
2017-07-21T10:34:20.141Z,27.72
2017-07-21T10:36:48.804Z,27.90
2017-07-21T10:39:17.172Z,27.87
2017-07-21T10:41:45.548Z,28.45
2017-07-21T10:44:14.348Z,28.30
2017-07-21T10:46:42.713Z,28.08
2017-07-21T10:49:11.119Z,28.22
2017-07-21T10:51:40.383Z,28.88
2017-07-21T10:54:08.744Z,28.37
2017-07-21T10:56:37.884Z,28.15
2017-07-21T10:59:06.663Z,27.90
2017-07-21T11:01:35.067Z,27.72
2017-07-21T11:04:03.446Z,28.46
2017-07-21T11:06:32.093Z,29.42
2017-07-21T11:09:00.671Z,29.84
2017-07-21T11:11:29.019Z,29.56
2017-07-21T11:13:58.152Z,29.70
2017-07-21T11:16:26.498Z,29.70
2017-07-21T11:18:54.847Z,29.86
2017-07-21T11:21:23.476Z,30.37
2017-07-21T11:23:51.843Z,31.14
2017-07-21T11:26:20.208Z,31.07
2017-07-21T11:28:49.070Z,31.13
2017-07-21T11:31:17.407Z,31.34
2017-07-21T11:33:45.771Z,31.42
2017-07-21T11:36:14.930Z,31.53
2017-07-21T11:38:43.299Z,31.47
2017-07-21T11:41:11.625Z,31.32
2017-07-21T11:43:40.257Z,31.59
2017-07-21T11:46:08.596Z,31.78
2017-07-21T11:48:36.951Z,31.35
2017-07-21T11:51:05.599Z,30.81
2017-07-21T11:53:33.961Z,30.62
2017-07-21T11:56:02.310Z,30.86
2017-07-21T11:58:31.438Z,31.25
2017-07-21T12:00:59.807Z,31.28
2017-07-21T12:03:28.181Z,31.52
2017-07-21T12:05:56.828Z,31.77
2017-07-21T12:08:25.174Z,31.51
2017-07-21T12:10:53.531Z,31.83
2017-07-21T12:13:22.342Z,31.86
2017-07-21T12:15:50.677Z,31.86
2017-07-21T12:18:19.786Z,31.66
2017-07-21T12:20:49.660Z,31.53
2017-07-21T12:23:18.032Z,31.87
2017-07-21T12:25:46.377Z,32.43
2017-07-21T12:28:14.993Z,32.60
2017-07-21T12:30:43.368Z,31.88
2017-07-21T12:33:11.840Z,31.71
2017-07-21T12:35:40.491Z,31.65
2017-07-21T12:38:08.865Z,31.49
2017-07-21T12:40:38.013Z,31.43
2017-07-21T12:43:06.986Z,31.54
2017-07-21T12:45:35.355Z,32.13
2017-07-21T12:48:03.693Z,32.14
2017-07-21T12:50:32.349Z,32.08
2017-07-21T12:53:00.698Z,32.23
2017-07-21T12:55:29.062Z,31.72
2017-07-21T12:57:57.894Z,31.53
2017-07-21T13:00:26.239Z,31.68
2017-07-21T13:02:54.592Z,31.80
2017-07-21T13:05:23.527Z,31.76
2017-07-21T13:07:51.884Z,32.09
2017-07-21T13:10:20.250Z,32.13
2017-07-21T13:12:49.185Z,31.98
2017-07-21T13:15:17.527Z,32.05
2017-07-21T13:17:45.861Z,31.94
2017-07-21T13:20:14.637Z,32.06
2017-07-21T13:22:43.007Z,31.10
2017-07-21T13:25:11.338Z,30.80
2017-07-21T13:27:40.300Z,31.19
2017-07-21T13:30:08.697Z,31.22
2017-07-21T13:32:37.043Z,29.97
2017-07-21T13:35:05.671Z,30.08
2017-07-21T13:37:34.016Z,30.16
2017-07-21T13:40:02.367Z,30.99
2017-07-21T13:42:31.054Z,31.65
2017-07-21T13:44:59.415Z,31.38
2017-07-21T13:47:27.762Z,31.64
2017-07-21T13:49:56.557Z,31.77
2017-07-21T13:52:24.919Z,32.18
2017-07-21T13:54:53.263Z,31.84
2017-07-21T13:57:22.052Z,32.01
2017-07-21T13:59:50.378Z,31.85
2017-07-21T14:02:18.713Z,31.30
2017-07-21T14:04:47.336Z,31.43
2017-07-21T14:07:15.694Z,31.17
2017-07-21T14:09:44.094Z,31.44
2017-07-21T14:12:13.170Z,32.02
2017-07-21T14:14:41.567Z,32.05
2017-07-21T14:17:09.920Z,31.70
2017-07-21T14:19:38.803Z,31.88
2017-07-21T14:22:07.146Z,31.84
2017-07-21T14:24:35.615Z,31.54
2017-07-21T14:27:04.274Z,31.80
2017-07-21T14:29:32.620Z,31.76
2017-07-21T14:32:00.981Z,31.84
2017-07-21T14:34:29.759Z,31.70
2017-07-21T14:36:58.118Z,31.38
2017-07-21T14:39:26.457Z,30.85
2017-07-21T14:41:55.340Z,30.75
2017-07-21T14:44:23.696Z,30.75
2017-07-21T14:46:52.072Z,31.03
2017-07-21T14:49:21.000Z,31.01
2017-07-21T14:51:49.354Z,30.83
2017-07-21T14:54:17.715Z,30.53
2017-07-21T14:56:46.554Z,30.63
2017-07-21T14:59:14.915Z,30.51
2017-07-21T15:01:43.285Z,30.36
2017-07-21T15:04:11.974Z,30.48
2017-07-21T15:06:40.343Z,30.42
2017-07-21T15:09:08.702Z,30.23
2017-07-21T15:11:38.261Z,30.01
2017-07-21T15:14:06.755Z,29.27
2017-07-21T15:16:35.101Z,29.10
2017-07-21T15:19:03.978Z,28.49
2017-07-21T15:21:32.350Z,28.74
2017-07-21T15:24:00.721Z,29.11
2017-07-21T15:26:29.429Z,29.36
2017-07-21T15:28:57.793Z,29.47
2017-07-21T15:31:26.142Z,29.72
2017-07-21T15:33:54.764Z,29.71
2017-07-21T15:36:23.103Z,29.51
2017-07-21T15:38:51.456Z,29.38
2017-07-21T15:41:20.556Z,29.66
2017-07-21T15:43:48.940Z,29.54
2017-07-21T15:46:17.342Z,29.01
2017-07-21T15:48:45.993Z,28.30
2017-07-21T15:51:14.338Z,28.89
2017-07-21T15:53:43.446Z,29.44
2017-07-21T15:56:12.109Z,29.63
2017-07-21T15:58:40.457Z,29.66
2017-07-21T16:01:08.807Z,29.80
2017-07-21T16:03:38.048Z,29.98
2017-07-21T16:06:06.378Z,30.15
2017-07-21T16:08:34.733Z,30.22
2017-07-21T16:11:03.729Z,30.28
2017-07-21T16:13:32.088Z,30.36
2017-07-21T16:16:00.463Z,30.20
2017-07-21T16:18:29.396Z,30.21
2017-07-21T16:20:57.769Z,30.25
2017-07-21T16:23:26.088Z,30.35
2017-07-21T16:25:55.255Z,30.33
2017-07-21T16:28:23.646Z,30.01
2017-07-21T16:30:52.010Z,30.01
2017-07-21T16:33:20.904Z,29.94
2017-07-21T16:35:49.246Z,29.47
2017-07-21T16:38:17.625Z,29.45
2017-07-21T16:40:46.255Z,29.57
2017-07-21T16:43:14.601Z,29.64
2017-07-21T16:45:42.936Z,29.30
2017-07-21T16:48:11.986Z,29.07
2017-07-21T16:50:40.363Z,29.19
2017-07-21T16:53:08.690Z,29.11
2017-07-21T16:55:37.461Z,28.75
2017-07-21T16:58:05.817Z,28.98
2017-07-21T17:00:34.205Z,29.04
2017-07-21T17:03:02.986Z,29.05
2017-07-21T17:05:31.351Z,28.98
2017-07-21T17:07:59.718Z,28.95
2017-07-21T17:10:29.305Z,28.67
2017-07-21T17:12:57.662Z,28.29
2017-07-21T17:15:26.016Z,27.72
2017-07-21T17:17:54.643Z,27.50
2017-07-21T17:20:22.977Z,27.28
2017-07-21T17:22:51.322Z,27.57
2017-07-21T17:25:20.047Z,27.86
2017-07-21T17:27:48.454Z,28.03
2017-07-21T17:30:16.839Z,27.87
2017-07-21T17:32:45.984Z,27.86
2017-07-21T17:35:14.363Z,27.68
2017-07-21T17:37:42.726Z,27.68
2017-07-21T17:40:11.378Z,27.84
2017-07-21T17:42:39.727Z,27.81
2017-07-21T17:45:08.069Z,27.86
2017-07-21T17:47:36.740Z,27.89
2017-07-21T17:50:05.110Z,27.77
2017-07-21T17:52:33.450Z,27.71
2017-07-21T17:55:02.209Z,27.44
2017-07-21T17:57:30.559Z,27.41
2017-07-21T17:59:58.906Z,27.43
2017-07-21T18:02:27.676Z,27.34
2017-07-21T18:04:56.025Z,27.29
2017-07-21T18:07:25.145Z,27.32
2017-07-21T18:09:53.955Z,27.27
2017-07-21T18:12:22.303Z,27.24
2017-07-21T18:14:50.658Z,27.23
2017-07-21T18:17:19.350Z,27.13
2017-07-21T18:19:47.696Z,27.08
2017-07-21T18:22:16.052Z,26.94
2017-07-21T18:24:44.830Z,26.93
2017-07-21T18:27:13.167Z,26.93
2017-07-21T18:29:41.523Z,26.90
2017-07-21T18:32:10.234Z,26.96
2017-07-21T18:34:38.570Z,27.00
2017-07-21T18:37:06.922Z,26.91
2017-07-21T18:39:35.946Z,26.76
2017-07-21T18:42:04.321Z,26.79
2017-07-21T18:44:32.675Z,26.62
2017-07-21T18:47:01.309Z,26.50
2017-07-21T18:49:29.675Z,26.40
2017-07-21T18:51:58.016Z,26.39
2017-07-21T18:54:26.659Z,26.28
2017-07-21T18:56:54.993Z,26.34
2017-07-21T18:59:23.357Z,26.24
2017-07-21T19:01:52.388Z,26.10
2017-07-21T19:04:20.733Z,26.17
2017-07-21T19:06:49.083Z,26.09
2017-07-21T19:09:17.752Z,26.05
2017-07-21T19:11:46.123Z,25.81
2017-07-21T19:14:14.453Z,25.75
2017-07-21T19:16:43.156Z,25.64
2017-07-21T19:19:11.528Z,25.70
2017-07-21T19:21:39.907Z,25.69
2017-07-21T19:24:08.845Z,25.53
2017-07-21T19:26:37.201Z,25.46
2017-07-21T19:29:05.559Z,25.45
2017-07-21T19:31:34.429Z,25.38
2017-07-21T19:34:02.758Z,25.34
2017-07-21T19:36:31.128Z,25.34
2017-07-21T19:38:59.869Z,25.28
2017-07-21T19:41:28.191Z,25.06
2017-07-21T19:43:56.564Z,25.13
2017-07-21T19:46:25.560Z,25.03
2017-07-21T19:48:53.898Z,24.99
2017-07-21T19:51:22.287Z,25.00
2017-07-21T19:53:51.185Z,24.89
2017-07-21T19:56:19.519Z,24.86
2017-07-21T19:58:47.882Z,24.88
2017-07-21T20:01:16.503Z,24.89
2017-07-21T20:03:44.869Z,24.77
2017-07-21T20:06:13.240Z,24.74
2017-07-21T20:08:42.127Z,24.60
2017-07-21T20:11:10.485Z,24.58
2017-07-21T20:13:38.849Z,24.54
2017-07-21T20:16:07.490Z,24.58
2017-07-21T20:18:35.872Z,24.33
2017-07-21T20:21:04.214Z,24.45
2017-07-21T20:23:33.181Z,24.37
2017-07-21T20:26:01.527Z,24.42
2017-07-21T20:28:29.905Z,24.28
2017-07-21T20:30:58.658Z,24.27
2017-07-21T20:33:27.003Z,24.28
2017-07-21T20:35:55.359Z,23.98
2017-07-21T20:38:24.036Z,24.04
2017-07-21T20:40:52.418Z,23.96
2017-07-21T20:43:20.753Z,23.87
2017-07-21T20:45:49.504Z,23.71
2017-07-21T20:48:17.865Z,23.56
2017-07-21T20:50:46.228Z,23.74
2017-07-21T20:53:14.954Z,23.57
2017-07-21T20:55:43.309Z,23.43
2017-07-21T20:58:11.659Z,23.34
2017-07-21T21:00:40.386Z,23.29
2017-07-21T21:03:08.768Z,23.44
2017-07-21T21:05:37.870Z,23.15
2017-07-21T21:08:07.299Z,23.31
2017-07-21T21:10:35.639Z,23.22
2017-07-21T21:13:04.749Z,23.26
2017-07-21T21:15:33.863Z,23.32
2017-07-21T21:18:02.208Z,23.29
2017-07-21T21:20:30.577Z,23.21
2017-07-21T21:22:59.441Z,23.27
2017-07-21T21:25:27.794Z,23.32
2017-07-21T21:27:56.157Z,23.30
2017-07-21T21:30:24.777Z,23.39
2017-07-21T21:32:53.164Z,23.29
2017-07-21T21:35:21.510Z,23.27
2017-07-21T21:37:50.303Z,23.33
2017-07-21T21:40:18.658Z,23.45
2017-07-21T21:42:47.762Z,23.23
2017-07-21T21:45:16.524Z,23.06
2017-07-21T21:47:44.904Z,23.09
2017-07-21T21:50:14.064Z,22.98
2017-07-21T21:52:42.837Z,23.01
2017-07-21T21:55:11.265Z,23.16
2017-07-21T21:57:39.643Z,23.05
2017-07-21T22:00:08.478Z,23.00
2017-07-21T22:02:36.837Z,22.85
2017-07-21T22:05:06.003Z,22.67
2017-07-21T22:07:34.693Z,22.75
2017-07-21T22:10:03.074Z,22.60
2017-07-21T22:12:31.428Z,22.59
2017-07-21T22:15:00.208Z,22.53
2017-07-21T22:17:28.559Z,22.54
2017-07-21T22:19:56.924Z,22.45
2017-07-21T22:22:26.032Z,22.51
2017-07-21T22:24:54.371Z,22.37
2017-07-21T22:27:22.739Z,22.55
2017-07-21T22:29:51.688Z,22.30
2017-07-21T22:32:20.046Z,22.59
2017-07-21T22:34:49.165Z,22.44
2017-07-21T22:37:17.946Z,22.56
2017-07-21T22:39:46.273Z,22.51
2017-07-21T22:42:14.643Z,22.42
2017-07-21T22:44:43.456Z,22.55
2017-07-21T22:47:11.852Z,22.62
2017-07-21T22:49:40.225Z,22.50
2017-07-21T22:52:09.052Z,22.41
2017-07-21T22:54:37.426Z,22.51
2017-07-21T22:57:05.790Z,22.52
2017-07-21T22:59:34.437Z,22.61
2017-07-21T23:02:02.788Z,22.44
2017-07-21T23:04:31.150Z,22.59
2017-07-21T23:07:00.138Z,22.49
2017-07-21T23:09:28.481Z,22.59
2017-07-21T23:11:56.855Z,22.54
2017-07-21T23:14:25.528Z,22.50
2017-07-21T23:16:53.871Z,22.56
2017-07-21T23:19:22.239Z,22.52
2017-07-21T23:21:51.026Z,22.51
2017-07-21T23:24:19.396Z,22.47
2017-07-21T23:26:48.519Z,22.29
2017-07-21T23:29:17.291Z,22.34
2017-07-21T23:31:45.621Z,22.10
2017-07-21T23:34:13.988Z,22.10
2017-07-21T23:36:42.684Z,22.12
2017-07-21T23:39:11.032Z,22.08
2017-07-21T23:41:39.425Z,21.77
2017-07-21T23:44:08.165Z,21.68
2017-07-21T23:46:36.540Z,21.67
2017-07-21T23:49:04.884Z,21.80
2017-07-21T23:51:34.043Z,21.76
2017-07-21T23:54:02.402Z,21.81
2017-07-21T23:56:31.529Z,21.68
2017-07-21T23:59:00.282Z,21.83
